Time;durP1;ratioP1;P1;durP2;ratioP2;P2;SDS_P1;SDS_P2;PMS_P1;PMS_P2;Temp;Humidity;BMP_temperature;BMP_pressure;BME280_temperature;BME280_humidity;BME280_pressure;Samples;Min_cycle;Max_cycle;Signal;HPM_P1;HPM_P2
2021/05/23 00:00:38;;;;;;;0.50;0.50;;;10.50;85.40;;;;;;5114952;28;20042;-77
2021/05/23 00:03:09;;;;;;;0.63;0.50;;;10.40;85.40;;;;;;5115220;28;20154;-77
2021/05/23 00:05:39;;;;;;;0.65;0.60;;;10.40;85.40;;;;;;5114923;28;20050;-76
2021/05/23 00:08:09;;;;;;;0.60;0.52;;;10.40;85.50;;;;;;5114912;28;20042;-77
2021/05/23 00:10:41;;;;;;;0.47;0.47;;;10.30;85.50;;;;;;5115002;28;20180;-77
2021/05/23 00:13:09;;;;;;;0.73;0.52;;;10.40;85.60;;;;;;5103090;28;20062;-76
2021/05/23 00:15:43;;;;;;;0.82;0.70;;;10.40;85.60;;;;;;5117617;28;20046;-78
2021/05/23 00:18:09;;;;;;;0.38;0.38;;;10.40;85.60;;;;;;5117270;28;20036;-75
2021/05/23 00:20:36;;;;;;;0.70;0.60;;;10.40;85.60;;;;;;5116585;28;20027;-75
2021/05/23 00:23:04;;;;;;;0.60;0.60;;;10.30;85.60;;;;;;5115086;28;20031;-75
2021/05/23 00:25:30;;;;;;;0.47;0.47;;;10.30;85.80;;;;;;5098439;28;20046;-75
2021/05/23 00:27:57;;;;;;;1.23;0.70;;;10.20;85.80;;;;;;5114627;28;20047;-75
2021/05/23 00:30:23;;;;;;;0.90;0.50;;;10.20;85.90;;;;;;5097749;28;20135;-75
2021/05/23 00:32:50;;;;;;;0.60;0.57;;;10.30;86.00;;;;;;5080539;28;20031;-76
2021/05/23 00:35:16;;;;;;;0.50;0.50;;;10.30;86.00;;;;;;5114345;28;20040;-75
2021/05/23 00:37:43;;;;;;;0.70;0.60;;;10.20;86.00;;;;;;5135942;28;20482;-75
2021/05/23 00:40:09;;;;;;;0.47;0.40;;;10.20;85.90;;;;;;5117858;28;20065;-76
2021/05/23 00:42:36;;;;;;;0.38;0.38;;;10.20;85.90;;;;;;5137017;28;20043;-76
2021/05/23 00:45:04;;;;;;;0.60;0.50;;;10.20;86.00;;;;;;5118109;28;20039;-75
2021/05/23 00:47:30;;;;;;;0.60;0.50;;;10.20;86.00;;;;;;5118658;28;20122;-76
2021/05/23 00:49:56;;;;;;;0.60;0.60;;;10.20;86.00;;;;;;5100634;28;20067;-76
2021/05/23 00:52:22;;;;;;;0.95;0.50;;;10.20;86.10;;;;;;5100689;28;20039;-76
2021/05/23 00:54:47;;;;;;;1.20;0.60;;;10.20;86.10;;;;;;5117685;28;20083;-76
2021/05/23 00:57:14;;;;;;;0.60;0.50;;;10.20;86.10;;;;;;5117820;28;20031;-76
2021/05/23 00:59:40;;;;;;;0.77;0.60;;;10.20;86.20;;;;;;5117681;28;20512;-76
2021/05/23 01:02:38;;;;;;;0.57;0.55;;;10.20;86.20;;;;;;5136122;28;20032;-76
2021/05/23 01:05:04;;;;;;;0.45;0.45;;;10.10;86.20;;;;;;5135981;28;20051;-75
2021/05/23 01:07:30;;;;;;;1.05;0.60;;;10.10;86.20;;;;;;5117351;28;20049;-76
2021/05/23 01:10:04;;;;;;;0.50;0.38;;;10.20;86.30;;;;;;5100694;28;20118;-76
2021/05/23 01:13:07;;;;;;;0.40;0.40;;;10.10;86.20;;;;;;5118813;28;20114;-76
2021/05/23 01:15:43;;;;;;;0.50;0.50;;;10.10;86.20;;;;;;5135586;28;20143;-76
2021/05/23 01:18:15;;;;;;;0.38;0.38;;;10.10;86.20;;;;;;5117393;28;20039;-76
2021/05/23 01:20:49;;;;;;;0.30;0.30;;;10.10;86.30;;;;;;5100738;28;20039;-77
2021/05/23 01:23:30;;;;;;;0.40;0.40;;;10.10;86.30;;;;;;5117338;28;20043;-76
2021/05/23 01:26:06;;;;;;;0.28;0.25;;;10.00;86.30;;;;;;5117383;28;20031;-76
2021/05/23 01:28:36;;;;;;;0.93;0.50;;;10.10;86.40;;;;;;5100447;28;20047;-76
2021/05/23 01:31:06;;;;;;;0.77;0.40;;;10.10;86.40;;;;;;5135996;28;20070;-76
2021/05/23 01:33:33;;;;;;;0.30;0.20;;;10.10;86.30;;;;;;5100399;28;20118;-77
2021/05/23 01:36:00;;;;;;;0.45;0.40;;;10.10;86.30;;;;;;5100060;28;20047;-76
2021/05/23 01:38:27;;;;;;;0.85;0.47;;;10.10;86.30;;;;;;5117196;28;20039;-76
2021/05/23 01:40:58;;;;;;;0.63;0.47;;;10.10;86.30;;;;;;5100126;28;20487;-76
2021/05/23 01:43:25;;;;;;;0.55;0.20;;;10.10;86.30;;;;;;5100582;28;20490;-76
2021/05/23 01:45:51;;;;;;;0.32;0.32;;;10.10;86.30;;;;;;5117168;28;20100;-76
2021/05/23 01:48:17;;;;;;;0.47;0.47;;;10.10;86.30;;;;;;5116756;28;20043;-76
2021/05/23 01:50:43;;;;;;;0.70;0.60;;;10.20;86.30;;;;;;5117093;28;20046;-76
2021/05/23 01:53:09;;;;;;;0.45;0.40;;;10.10;86.30;;;;;;5100078;28;20047;-77
2021/05/23 01:55:35;;;;;;;0.88;0.40;;;10.10;86.30;;;;;;5116754;28;20406;-76
2021/05/23 01:58:01;;;;;;;0.60;0.40;;;10.10;86.30;;;;;;5116921;28;20066;-76
2021/05/23 02:00:31;;;;;;;0.25;0.25;;;10.10;86.40;;;;;;5116783;28;20511;-76
2021/05/23 02:02:57;;;;;;;0.40;0.40;;;10.10;86.40;;;;;;5135308;28;20035;-76
2021/05/23 02:05:23;;;;;;;0.32;0.32;;;10.10;86.40;;;;;;5135063;28;20131;-77
2021/05/23 02:07:49;;;;;;;0.70;0.60;;;10.00;86.50;;;;;;5099809;28;20117;-76
2021/05/23 02:10:17;;;;;;;0.50;0.50;;;9.90;86.50;;;;;;5135103;28;20040;-76
2021/05/23 02:12:45;;;;;;;0.40;0.40;;;10.00;86.60;;;;;;5116888;28;20069;-76
2021/05/23 02:15:13;;;;;;;0.45;0.45;;;10.00;86.60;;;;;;5134697;28;20077;-77
2021/05/23 02:17:41;;;;;;;0.32;0.32;;;9.90;86.60;;;;;;5117253;28;20116;-76
2021/05/23 02:20:09;;;;;;;0.40;0.40;;;9.90;86.60;;;;;;5134926;28;20061;-76
2021/05/23 02:22:40;;;;;;;0.47;0.47;;;9.90;86.70;;;;;;5099754;28;20114;-76
2021/05/23 02:25:07;;;;;;;;;;;9.90;86.70;;;;;;5135082;28;20039;-76
2021/05/23 02:27:44;;;;;;;0.35;0.35;;;9.90;86.60;;;;;;5116358;28;19918;-76
2021/05/23 02:30:14;;;;;;;0.45;0.40;;;9.90;86.60;;;;;;5135118;28;20463;-76
2021/05/23 02:32:41;;;;;;;0.20;0.20;;;9.90;86.50;;;;;;5116302;28;20489;-76
2021/05/23 02:35:08;;;;;;;0.40;0.40;;;9.90;86.50;;;;;;5099018;28;20043;-77
2021/05/23 02:37:34;;;;;;;0.60;0.40;;;9.90;86.50;;;;;;5099359;28;20191;-76
2021/05/23 02:40:03;;;;;;;0.60;0.40;;;9.90;86.50;;;;;;5099241;28;20533;-76
2021/05/23 02:42:29;;;;;;;0.50;0.50;;;9.90;86.60;;;;;;5116452;28;20054;-76
2021/05/23 02:44:55;;;;;;;0.55;0.52;;;9.80;86.50;;;;;;5098981;28;20125;-76
2021/05/23 02:47:21;;;;;;;1.02;0.57;;;9.90;86.50;;;;;;5116099;28;20120;-76
2021/05/23 02:49:46;;;;;;;0.50;0.50;;;9.90;86.60;;;;;;5116505;28;20080;-76
2021/05/23 02:52:12;;;;;;;0.57;0.50;;;9.90;86.60;;;;;;5116063;28;20057;-76
2021/05/23 02:54:38;;;;;;;0.60;0.52;;;9.90;86.50;;;;;;5081915;28;20040;-76
2021/05/23 02:57:05;;;;;;;0.77;0.60;;;10.00;86.60;;;;;;5134160;28;20418;-76
2021/05/23 02:59:31;;;;;;;0.50;0.43;;;9.90;86.50;;;;;;5098140;28;20047;-76
2021/05/23 03:01:57;;;;;;;0.80;0.60;;;10.10;86.60;;;;;;5134778;28;20049;-76
2021/05/23 03:04:23;;;;;;;0.50;0.50;;;9.90;86.50;;;;;;5098892;28;20472;-76
2021/05/23 03:06:50;;;;;;;0.70;0.60;;;9.90;86.50;;;;;;5116188;28;20130;-76
2021/05/23 03:09:16;;;;;;;1.25;0.80;;;9.90;86.60;;;;;;5082005;28;20448;-76
2021/05/23 03:11:43;;;;;;;1.10;0.77;;;9.90;86.60;;;;;;5115560;28;20042;-76
2021/05/23 03:14:10;;;;;;;1.17;0.70;;;10.00;86.70;;;;;;5098768;28;20088;-76
2021/05/23 03:16:36;;;;;;;0.77;0.52;;;9.90;86.60;;;;;;5134311;28;20043;-76
2021/05/23 03:19:03;;;;;;;0.80;0.60;;;9.80;86.60;;;;;;5133866;28;20039;-77
2021/05/23 03:21:30;;;;;;;1.05;0.80;;;9.80;86.60;;;;;;5115733;28;20051;-76
2021/05/23 03:23:55;;;;;;;1.25;0.70;;;9.90;86.70;;;;;;5133676;28;20118;-76
2021/05/23 03:26:22;;;;;;;1.23;0.80;;;9.80;86.70;;;;;;5098401;28;20067;-76
2021/05/23 03:28:48;;;;;;;0.93;0.60;;;9.80;86.70;;;;;;5115301;28;20047;-75
2021/05/23 03:31:14;;;;;;;0.82;0.70;;;9.80;86.80;;;;;;5098212;28;20039;-76
2021/05/23 03:33:40;;;;;;;0.65;0.55;;;9.80;86.80;;;;;;5098867;28;20035;-76
2021/05/23 03:36:06;;;;;;;0.75;0.70;;;9.80;86.80;;;;;;5115305;28;20130;-76
2021/05/23 03:38:32;;;;;;;0.63;0.50;;;9.80;86.80;;;;;;5115189;28;20500;-76
2021/05/23 03:40:58;;;;;;;0.52;0.50;;;9.80;86.80;;;;;;5098172;28;20122;-76
2021/05/23 03:43:23;;;;;;;0.50;0.50;;;9.80;86.80;;;;;;5114959;28;20118;-76
2021/05/23 03:45:50;;;;;;;0.73;0.52;;;9.90;86.80;;;;;;5115145;28;20402;-76
2021/05/23 03:48:16;;;;;;;0.40;0.40;;;9.80;86.80;;;;;;5098099;28;20047;-76
2021/05/23 03:50:41;;;;;;;1.10;0.70;;;9.90;86.80;;;;;;5133400;28;20122;-76
2021/05/23 03:53:07;;;;;;;0.75;0.70;;;9.90;86.70;;;;;;5114743;28;20042;-76
2021/05/23 03:55:34;;;;;;;0.90;0.80;;;9.90;86.80;;;;;;5114931;28;20039;-75
2021/05/23 03:58:00;;;;;;;0.68;0.60;;;9.90;86.70;;;;;;5115137;28;20110;-76
2021/05/23 04:00:27;;;;;;;0.70;0.60;;;10.00;86.70;;;;;;5115387;28;20027;-75
2021/05/23 04:02:55;;;;;;;1.27;0.90;;;9.90;87.20;;;;;;5081252;28;20042;-75
2021/05/23 04:05:22;;;;;;;0.60;0.52;;;10.00;86.70;;;;;;5133535;28;20050;-75
2021/05/23 04:07:49;;;;;;;0.60;0.50;;;9.90;86.60;;;;;;5115046;28;20050;-75
2021/05/23 04:10:18;;;;;;;0.65;0.60;;;10.00;86.70;;;;;;5115691;28;20039;-75
2021/05/23 04:12:47;;;;;;;0.73;0.55;;;9.90;86.70;;;;;;5115419;28;20036;-75
2021/05/23 04:15:15;;;;;;;1.15;0.80;;;10.00;86.70;;;;;;5098231;28;20398;-75
2021/05/23 04:17:41;;;;;;;1.98;0.90;;;10.00;86.70;;;;;;5097948;28;20065;-75
2021/05/23 04:20:10;;;;;;;1.17;0.82;;;10.10;86.70;;;;;;5133790;28;20046;-76
2021/05/23 04:22:36;;;;;;;1.83;1.00;;;10.10;86.80;;;;;;5098750;28;20077;-76
2021/05/23 04:25:06;;;;;;;1.50;1.02;;;10.00;86.70;;;;;;5097898;28;20043;-75
2021/05/23 04:27:32;;;;;;;1.92;1.13;;;10.00;87.30;;;;;;5098552;28;20513;-75
2021/05/23 04:29:58;;;;;;;1.67;1.05;;;10.10;86.70;;;;;;5097918;28;20043;-76
2021/05/23 04:32:23;;;;;;;1.58;0.98;;;10.10;86.70;;;;;;5133213;28;20043;-75
2021/05/23 04:34:49;;;;;;;1.83;1.20;;;10.10;86.70;;;;;;5115184;28;20046;-76
2021/05/23 04:37:16;;;;;;;1.42;1.00;;;10.10;86.70;;;;;;5080855;28;20031;-76
2021/05/23 04:39:43;;;;;;;2.00;1.20;;;10.20;86.70;;;;;;5115049;28;20050;-75
2021/05/23 04:42:09;;;;;;;1.60;1.10;;;10.20;86.70;;;;;;5114444;28;20043;-75
2021/05/23 04:44:35;;;;;;;2.17;1.27;;;10.20;86.70;;;;;;5080614;28;20062;-75
2021/05/23 04:47:01;;;;;;;1.75;1.15;;;10.20;86.70;;;;;;5097553;28;20031;-76
2021/05/23 04:49:27;;;;;;;1.63;1.10;;;10.20;86.70;;;;;;5097344;28;20035;-75
2021/05/23 04:51:53;;;;;;;1.58;1.10;;;10.30;86.80;;;;;;5114268;28;20054;-75
2021/05/23 04:54:19;;;;;;;2.03;1.30;;;10.30;86.70;;;;;;5114293;28;20051;-75
2021/05/23 04:56:44;;;;;;;1.95;1.30;;;10.30;86.70;;;;;;5114359;28;20046;-75
2021/05/23 04:59:10;;;;;;;2.08;1.50;;;10.30;86.60;;;;;;5114545;28;20062;-75
2021/05/23 05:01:36;;;;;;;2.35;1.38;;;10.30;86.60;;;;;;5114133;28;20047;-76
2021/05/23 05:04:03;;;;;;;1.80;1.20;;;10.40;86.70;;;;;;5114081;28;20035;-75
2021/05/23 05:06:29;;;;;;;1.95;1.27;;;10.50;86.70;;;;;;5080466;28;20091;-75
2021/05/23 05:08:55;;;;;;;2.65;1.52;;;10.50;86.60;;;;;;5114391;28;20047;-75
2021/05/23 05:11:21;;;;;;;2.60;1.35;;;10.60;86.50;;;;;;5132769;28;20039;-76
2021/05/23 05:13:46;;;;;;;2.35;1.52;;;10.60;86.40;;;;;;5130760;28;20070;-75
2021/05/23 05:16:13;;;;;;;2.88;1.70;;;10.60;86.30;;;;;;5097433;28;20047;-76
2021/05/23 05:18:39;;;;;;;2.78;1.85;;;10.70;86.40;;;;;;5097398;28;20042;-75
2021/05/23 05:21:05;;;;;;;2.78;1.42;;;10.70;86.50;;;;;;5098661;27;20487;-76
2021/05/23 05:23:31;;;;;;;3.53;2.15;;;10.60;86.40;;;;;;5135121;28;20130;-76
2021/05/23 05:26:00;;;;;;;3.15;2.00;;;10.60;86.50;;;;;;5135588;28;20050;-75
2021/05/23 05:28:26;;;;;;;4.53;2.65;;;10.60;86.60;;;;;;5117752;28;20039;-75
2021/05/23 05:30:52;;;;;;;3.20;1.92;;;10.60;86.70;;;;;;5117481;28;20035;-76
2021/05/23 05:33:17;;;;;;;3.53;2.00;;;10.60;86.90;;;;;;5118009;28;20568;-76
2021/05/23 05:35:43;;;;;;;3.63;2.15;;;10.60;86.80;;;;;;5135645;28;20063;-75
2021/05/23 05:38:11;;;;;;;4.32;2.63;;;10.50;86.90;;;;;;5135875;28;20045;-76
2021/05/23 05:40:37;;;;;;;3.70;2.10;;;10.50;87.00;;;;;;5100470;28;20509;-75
2021/05/23 05:43:02;;;;;;;4.43;2.70;;;10.60;87.10;;;;;;5136107;28;20055;-76
2021/05/23 05:45:28;;;;;;;5.03;2.75;;;10.60;87.00;;;;;;5136044;28;20363;-76
2021/05/23 05:47:54;;;;;;;3.92;2.33;;;10.70;87.10;;;;;;5117121;28;20061;-76
2021/05/23 05:50:20;;;;;;;3.30;2.10;;;10.80;87.00;;;;;;5117249;28;20047;-76
2021/05/23 05:52:45;;;;;;;3.33;1.80;;;10.80;86.80;;;;;;5135620;28;20043;-76
2021/05/23 05:55:13;;;;;;;4.07;2.40;;;10.80;86.60;;;;;;5100433;28;20054;-76
2021/05/23 05:57:39;;;;;;;3.85;2.30;;;10.80;86.60;;;;;;5135840;28;20036;-75
2021/05/23 06:00:06;;;;;;;3.97;2.40;;;10.90;86.80;;;;;;5117157;28;20095;-76
2021/05/23 06:02:32;;;;;;;3.47;2.00;;;10.80;86.70;;;;;;5117300;28;20047;-77
2021/05/23 06:04:57;;;;;;;4.07;2.58;;;10.90;86.80;;;;;;5135319;28;20100;-77
2021/05/23 06:07:23;;;;;;;3.88;2.13;;;10.90;86.80;;;;;;5116872;28;20043;-77
2021/05/23 06:09:49;;;;;;;4.78;2.67;;;10.90;86.80;;;;;;5116730;28;20044;-77
2021/05/23 06:12:17;;;;;;;4.47;2.58;;;10.90;86.80;;;;;;5116574;28;20075;-77
2021/05/23 06:14:43;;;;;;;4.45;2.60;;;11.00;86.90;;;;;;5099896;28;20393;-77
2021/05/23 06:17:09;;;;;;;4.20;2.63;;;10.90;86.90;;;;;;5099464;28;20046;-76
2021/05/23 06:19:34;;;;;;;3.80;2.58;;;11.00;86.90;;;;;;5134780;28;20031;-77
2021/05/23 06:22:00;;;;;;;3.70;2.20;;;10.90;86.80;;;;;;5082484;28;20035;-76
2021/05/23 06:24:26;;;;;;;4.82;2.35;;;11.00;87.00;;;;;;5116490;28;20422;-77
2021/05/23 06:26:51;;;;;;;6.28;2.75;;;10.90;87.10;;;;;;5116461;28;20070;-76
2021/05/23 06:29:17;;;;;;;4.18;2.72;;;10.80;87.10;;;;;;5134729;28;20035;-76
2021/05/23 06:31:43;;;;;;;3.97;2.80;;;10.90;87.20;;;;;;5116394;28;20035;-76
2021/05/23 06:34:09;;;;;;;3.78;2.38;;;10.80;87.30;;;;;;5135343;27;20031;-75
2021/05/23 06:36:37;;;;;;;4.22;2.53;;;10.80;87.30;;;;;;5099269;28;20047;-76
2021/05/23 06:39:04;;;;;;;4.38;2.50;;;10.80;87.40;;;;;;5099513;28;20092;-76
2021/05/23 06:41:30;;;;;;;4.35;2.65;;;10.80;87.30;;;;;;5134931;28;20062;-76
2021/05/23 06:43:55;;;;;;;3.13;2.20;;;10.80;87.30;;;;;;5099095;28;20074;-76
2021/05/23 06:46:21;;;;;;;3.05;1.88;;;10.80;87.30;;;;;;5134621;28;20039;-76
2021/05/23 06:48:47;;;;;;;2.35;1.85;;;10.80;87.30;;;;;;5116895;28;20092;-77
2021/05/23 06:51:13;;;;;;;3.00;1.80;;;10.80;87.30;;;;;;5099611;28;20494;-76
2021/05/23 06:53:39;;;;;;;2.47;1.70;;;10.80;87.30;;;;;;5116584;28;20043;-77
2021/05/23 06:56:05;;;;;;;2.45;1.50;;;10.80;87.30;;;;;;5082229;28;20071;-77
2021/05/23 06:58:31;;;;;;;2.25;1.52;;;10.80;87.40;;;;;;5134876;28;20031;-77
2021/05/23 07:00:57;;;;;;;3.08;1.67;;;10.80;87.40;;;;;;5099155;28;20383;-77
2021/05/23 07:03:23;;;;;;;2.20;1.50;;;10.70;87.50;;;;;;5134913;28;20039;-76
2021/05/23 07:05:49;;;;;;;2.42;1.23;;;10.70;87.50;;;;;;5099640;28;20043;-78
2021/05/23 07:08:17;;;;;;;1.63;1.23;;;10.70;87.60;;;;;;5115908;28;20035;-77
2021/05/23 07:10:42;;;;;;;1.65;1.33;;;10.70;87.60;;;;;;5134909;28;20035;-77
2021/05/23 07:13:08;;;;;;;1.40;1.30;;;10.80;87.60;;;;;;5115827;28;20137;-77
2021/05/23 07:15:34;;;;;;;1.70;1.40;;;10.70;87.60;;;;;;5099075;28;20158;-77
2021/05/23 07:17:59;;;;;;;2.03;1.38;;;10.70;87.50;;;;;;5114003;28;20039;-77
2021/05/23 07:20:25;;;;;;;2.53;1.50;;;10.70;87.50;;;;;;5098737;28;20072;-77
2021/05/23 07:22:51;;;;;;;3.63;1.55;;;10.70;87.50;;;;;;5134090;28;20084;-76
2021/05/23 07:25:17;;;;;;;1.70;1.38;;;10.70;87.40;;;;;;5099277;28;20122;-77
2021/05/23 07:27:43;;;;;;;2.25;1.60;;;10.70;87.40;;;;;;5116107;28;20039;-78
2021/05/23 07:30:09;;;;;;;3.88;1.83;;;10.70;87.30;;;;;;5098568;28;20039;-78
2021/05/23 07:32:34;;;;;;;2.83;1.60;;;10.70;87.30;;;;;;5115580;28;20483;-77
2021/05/23 07:35:00;;;;;;;2.10;1.40;;;10.70;87.30;;;;;;5133745;28;20035;-78
2021/05/23 07:37:26;;;;;;;3.05;1.35;;;10.70;87.30;;;;;;5098357;28;20568;-78
2021/05/23 07:39:52;;;;;;;2.13;1.30;;;10.80;87.20;;;;;;5115395;28;20035;-75
2021/05/23 07:42:17;;;;;;;1.45;1.20;;;10.80;87.10;;;;;;5098236;28;20063;-75
2021/05/23 07:44:43;;;;;;;1.80;1.30;;;10.90;87.10;;;;;;5133117;27;20077;-77
2021/05/23 07:47:09;;;;;;;1.70;1.13;;;11.00;87.00;;;;;;5115528;28;20062;-76
2021/05/23 07:49:40;;;;;;;2.85;1.23;;;10.90;86.80;;;;;;5133665;28;20131;-76
2021/05/23 07:52:08;;;;;;;3.22;1.48;;;11.00;86.60;;;;;;5116273;28;20054;-76
2021/05/23 07:54:34;;;;;;;1.88;1.23;;;11.00;86.50;;;;;;5133407;28;20517;-76
2021/05/23 07:57:01;;;;;;;3.45;1.50;;;11.00;86.60;;;;;;5115235;28;20482;-78
2021/05/23 07:59:27;;;;;;;2.28;1.60;;;11.00;86.50;;;;;;5115118;28;20037;-77
2021/05/23 08:01:53;;;;;;;1.90;1.30;;;10.90;87.20;;;;;;5098581;28;20031;-76
2021/05/23 08:04:19;;;;;;;3.90;1.58;;;10.90;86.70;;;;;;5098037;28;20159;-75
2021/05/23 08:06:44;;;;;;;2.03;1.30;;;10.90;86.70;;;;;;5097854;28;20035;-76
2021/05/23 08:09:10;;;;;;;1.48;1.10;;;10.90;86.80;;;;;;5114818;28;20406;-76
2021/05/23 08:11:36;;;;;;;2.30;1.25;;;10.90;86.70;;;;;;5080987;28;20470;-76
2021/05/23 08:14:02;;;;;;;1.52;1.10;;;11.00;86.60;;;;;;5114831;28;20039;-75
2021/05/23 08:16:27;;;;;;;2.03;1.15;;;11.10;86.40;;;;;;5097825;28;20472;-75
2021/05/23 08:18:53;;;;;;;1.85;1.05;;;11.00;86.30;;;;;;5115060;28;20058;-76
2021/05/23 08:21:19;;;;;;;3.17;1.20;;;11.10;86.30;;;;;;5114700;28;20046;-76
2021/05/23 08:23:44;;;;;;;1.95;1.20;;;11.10;86.30;;;;;;5097670;28;20070;-77
2021/05/23 08:26:10;;;;;;;2.38;1.30;;;11.00;86.20;;;;;;5097735;28;20099;-76
2021/05/23 08:28:36;;;;;;;1.95;1.20;;;11.10;86.30;;;;;;5097886;28;20068;-75
2021/05/23 08:31:02;;;;;;;1.55;1.08;;;11.20;86.40;;;;;;5097712;28;20050;-76
2021/05/23 08:33:30;;;;;;;1.10;1.00;;;11.40;86.40;;;;;;5097510;28;20046;-77
2021/05/23 08:35:55;;;;;;;2.20;1.40;;;11.70;86.00;;;;;;5081277;28;20402;-78
2021/05/23 08:38:22;;;;;;;2.70;1.30;;;11.90;85.00;;;;;;5097767;28;20050;-78
2021/05/23 08:40:49;;;;;;;1.40;1.30;;;11.90;84.50;;;;;;5114753;28;20486;-77
2021/05/23 08:43:15;;;;;;;1.38;1.10;;;11.90;84.50;;;;;;5132960;28;20043;-78
2021/05/23 08:45:42;;;;;;;1.48;1.20;;;11.90;84.60;;;;;;5098603;28;20035;-78
2021/05/23 08:48:08;;;;;;;1.45;0.98;;;11.90;84.70;;;;;;5098437;28;20043;-81
2021/05/23 08:50:35;;;;;;;1.02;0.93;;;12.00;84.60;;;;;;5134785;28;20047;-79
2021/05/23 08:53:03;;;;;;;1.58;1.00;;;12.10;84.50;;;;;;5114456;28;20039;-79
2021/05/23 08:55:32;;;;;;;1.95;1.10;;;12.20;84.30;;;;;;5097573;28;20039;-78
2021/05/23 08:57:59;;;;;;;2.05;1.30;;;12.20;84.30;;;;;;5117130;28;20039;-80
2021/05/23 09:00:26;;;;;;;1.25;1.15;;;12.20;84.10;;;;;;5118810;28;20084;-78
2021/05/23 09:03:06;;;;;;;1.17;1.08;;;12.10;84.10;;;;;;5100882;28;20482;-78
2021/05/23 09:05:35;;;;;;;1.42;0.80;;;12.20;84.20;;;;;;5136360;28;20047;-77
2021/05/23 09:08:03;;;;;;;2.33;0.90;;;12.20;84.20;;;;;;5084260;28;20031;-78
2021/05/23 09:10:32;;;;;;;1.40;0.90;;;12.10;84.80;;;;;;5136204;28;20492;-78
2021/05/23 09:12:58;;;;;;;0.85;0.70;;;12.10;84.20;;;;;;5117975;28;20035;-79
2021/05/23 09:15:25;;;;;;;0.70;0.70;;;12.10;84.20;;;;;;5117590;28;20047;-78
2021/05/23 09:18:04;;;;;;;1.63;0.70;;;12.10;84.00;;;;;;5101392;28;20070;-78
2021/05/23 09:20:31;;;;;;;1.60;0.65;;;12.20;83.80;;;;;;5117660;28;20451;-79
2021/05/23 09:22:59;;;;;;;0.73;0.63;;;12.20;83.90;;;;;;5117964;28;20389;-77
2021/05/23 09:25:40;;;;;;;1.27;0.65;;;12.30;83.60;;;;;;5136650;28;20043;-78
2021/05/23 09:28:07;;;;;;;1.35;0.68;;;12.40;83.10;;;;;;5117617;28;20047;-79
2021/05/23 09:30:37;;;;;;;0.73;0.70;;;12.40;82.80;;;;;;5117697;28;20562;-78
2021/05/23 09:33:03;;;;;;;0.68;0.45;;;12.40;82.80;;;;;;5117829;28;20133;-78
2021/05/23 09:35:30;;;;;;;0.80;0.60;;;12.40;82.80;;;;;;5135979;28;20040;-78
2021/05/23 09:38:00;;;;;;;0.93;0.55;;;12.50;82.80;;;;;;5117627;28;20035;-79
2021/05/23 09:40:29;;;;;;;0.73;0.50;;;12.60;82.60;;;;;;5117297;28;20394;-77
2021/05/23 09:42:56;;;;;;;0.93;0.38;;;12.90;82.00;;;;;;5118064;28;20058;-77
2021/05/23 09:45:25;;;;;;;0.40;0.40;;;13.10;81.10;;;;;;5117469;28;20444;-77
2021/05/23 09:47:58;;;;;;;1.55;0.60;;;13.30;80.70;;;;;;5100895;28;20099;-78
2021/05/23 09:50:40;;;;;;;0.40;0.32;;;13.50;80.10;;;;;;5100350;28;20398;-77
2021/05/23 09:53:20;;;;;;;0.80;0.52;;;13.80;79.60;;;;;;5100089;28;20043;-78
2021/05/23 09:56:00;;;;;;;1.02;0.60;;;13.90;79.10;;;;;;5116953;28;20410;-78
2021/05/23 09:58:30;;;;;;;1.00;0.73;;;14.00;78.70;;;;;;5100208;28;20035;-77
2021/05/23 10:00:57;;;;;;;0.60;0.60;;;13.90;78.40;;;;;;5117760;28;20043;-78
2021/05/23 10:03:28;;;;;;;1.00;0.60;;;13.80;78.60;;;;;;5136023;28;20031;-78
2021/05/23 10:05:54;;;;;;;;;;;13.90;79.20;;;;;;5119046;28;20152;-79
2021/05/23 10:08:20;;;;;;;0.50;0.50;;;14.00;78.90;;;;;;5099736;28;19943;-77
2021/05/23 10:10:48;;;;;;;0.50;0.50;;;14.10;78.40;;;;;;5116874;28;20055;-78
2021/05/23 10:13:14;;;;;;;1.05;0.50;;;13.90;78.30;;;;;;5100350;28;20066;-78
2021/05/23 10:15:40;;;;;;;0.85;0.45;;;14.00;78.40;;;;;;5099683;28;20043;-78
2021/05/23 10:18:10;;;;;;;0.85;0.60;;;14.10;78.20;;;;;;5083104;28;20490;-78
2021/05/23 10:20:37;;;;;;;2.70;0.50;;;14.40;77.90;;;;;;5135249;28;20043;-78
2021/05/23 10:23:10;;;;;;;0.60;0.35;;;14.40;77.40;;;;;;5117019;28;20035;-78
2021/05/23 10:25:44;;;;;;;0.80;0.40;;;14.30;77.30;;;;;;5116747;28;20119;-78
2021/05/23 10:28:10;;;;;;;0.68;0.43;;;14.20;77.70;;;;;;5116744;28;20045;-77
2021/05/23 10:30:49;;;;;;;0.45;0.40;;;14.10;77.90;;;;;;5135081;28;20122;-77
2021/05/23 10:33:15;;;;;;;0.80;0.60;;;14.00;78.20;;;;;;5135415;28;20106;-78
2021/05/23 10:35:44;;;;;;;0.45;0.43;;;14.00;78.20;;;;;;5099241;28;20042;-78
2021/05/23 10:38:13;;;;;;;0.82;0.60;;;13.90;78.20;;;;;;5116268;28;20542;-78
2021/05/23 10:40:55;;;;;;;0.90;0.60;;;13.70;78.40;;;;;;5099746;28;20031;-77
2021/05/23 10:43:21;;;;;;;;;;;13.70;78.70;;;;;;5099672;28;20480;-78
2021/05/23 10:45:47;;;;;;;0.50;0.50;;;13.50;78.80;;;;;;5116184;28;19919;-77
2021/05/23 10:48:15;;;;;;;0.98;0.60;;;13.60;78.90;;;;;;5134771;28;20031;-77
2021/05/23 10:50:41;;;;;;;1.75;0.82;;;13.70;78.80;;;;;;5135017;28;20096;-78
2021/05/23 10:53:07;;;;;;;0.85;0.70;;;13.80;78.50;;;;;;5116395;28;20039;-78
2021/05/23 10:55:35;;;;;;;0.80;0.70;;;13.90;78.10;;;;;;5116090;28;20056;-78
2021/05/23 10:58:01;;;;;;;0.77;0.68;;;13.90;77.80;;;;;;5116412;28;20867;-79
2021/05/23 11:00:32;;;;;;;1.13;0.60;;;13.90;77.60;;;;;;5102799;28;20038;-79
2021/05/23 11:03:09;;;;;;;1.20;0.52;;;13.90;77.30;;;;;;5134815;28;20096;-77
2021/05/23 11:05:35;;;;;;;1.17;0.70;;;13.90;77.30;;;;;;5115922;28;20084;-77
2021/05/23 11:08:07;;;;;;;1.10;0.90;;;13.90;77.30;;;;;;5116102;28;20043;-77
2021/05/23 11:10:42;;;;;;;1.88;0.80;;;13.90;76.80;;;;;;5116204;28;20057;-78
2021/05/23 11:13:12;;;;;;;2.08;0.75;;;13.90;76.70;;;;;;5082265;28;20490;-77
2021/05/23 11:15:44;;;;;;;1.33;0.90;;;14.10;76.70;;;;;;5116191;28;20398;-78
2021/05/23 11:18:25;;;;;;;0.70;0.57;;;14.10;76.20;;;;;;5115988;28;20409;-77
2021/05/23 11:21:06;;;;;;;2.47;0.80;;;14.30;76.00;;;;;;5133113;27;20031;-78
2021/05/23 11:23:42;;;;;;;0.80;0.70;;;14.40;75.50;;;;;;5116409;28;20122;-78
2021/05/23 11:26:11;;;;;;;0.85;0.60;;;14.60;75.10;;;;;;5100771;28;20043;-78
2021/05/23 11:28:38;;;;;;;0.77;0.57;;;14.60;74.70;;;;;;5134095;28;20047;-78
2021/05/23 11:31:05;;;;;;;1.80;0.68;;;14.60;74.50;;;;;;5134832;28;20050;-78
2021/05/23 11:33:30;;;;;;;0.88;0.70;;;14.70;74.50;;;;;;5133873;28;20039;-78
2021/05/23 11:35:56;;;;;;;0.68;0.68;;;14.90;74.30;;;;;;5098889;28;20050;-77
2021/05/23 11:38:35;;;;;;;0.55;0.43;;;15.10;74.10;;;;;;5099341;28;20059;-78
2021/05/23 11:41:01;;;;;;;0.50;0.50;;;15.30;73.80;;;;;;5115450;28;20031;-77
2021/05/23 11:43:26;;;;;;;0.50;0.47;;;15.30;73.10;;;;;;5115971;28;20375;-76
2021/05/23 11:45:57;;;;;;;1.05;0.60;;;15.30;73.10;;;;;;5133785;28;20035;-77
2021/05/23 11:48:32;;;;;;;;;;;15.20;73.10;;;;;;5117848;28;20042;-78
2021/05/23 11:50:59;;;;;;;0.68;0.50;;;15.10;73.50;;;;;;5117342;28;19911;-76
2021/05/23 11:53:45;;;;;;;1.45;0.70;;;15.10;73.80;;;;;;5098887;28;20512;-77
2021/05/23 11:56:17;;;;;;;0.68;0.50;;;15.30;73.20;;;;;;5117010;28;20104;-78
2021/05/23 11:58:49;;;;;;;1.13;0.47;;;15.30;73.00;;;;;;5118221;28;20039;-78
2021/05/23 12:01:20;;;;;;;0.50;0.50;;;15.30;72.90;;;;;;5138721;28;20046;-78
2021/05/23 12:03:54;;;;;;;;;;;15.40;73.10;;;;;;5117079;28;20050;-78
2021/05/23 12:06:19;;;;;;;0.55;0.55;;;15.50;73.00;;;;;;5135012;28;20005;-78
2021/05/23 12:08:45;;;;;;;1.13;0.50;;;15.60;72.40;;;;;;5137072;28;20066;-79
2021/05/23 12:11:11;;;;;;;1.13;0.40;;;15.60;72.00;;;;;;5116735;28;20087;-78
2021/05/23 12:13:40;;;;;;;1.08;0.60;;;15.60;72.10;;;;;;5099473;28;20073;-79
2021/05/23 12:16:08;;;;;;;0.98;0.55;;;15.60;72.00;;;;;;5117534;28;20130;-79
2021/05/23 12:18:39;;;;;;;1.17;0.50;;;15.60;72.00;;;;;;5134620;28;20039;-78
2021/05/23 12:21:07;;;;;;;1.00;0.60;;;15.50;72.00;;;;;;5118083;28;20440;-79
2021/05/23 12:23:34;;;;;;;1.00;0.45;;;15.40;72.10;;;;;;5117971;28;20043;-78
2021/05/23 12:26:00;;;;;;;0.93;0.40;;;15.30;72.30;;;;;;5116754;28;20039;-79
2021/05/23 12:28:42;;;;;;;0.50;0.40;;;15.20;72.40;;;;;;5116074;28;20516;-80
2021/05/23 12:31:10;;;;;;;1.17;0.50;;;15.30;72.20;;;;;;5136252;27;20043;-80
2021/05/23 12:33:36;;;;;;;1.08;0.60;;;15.50;71.50;;;;;;5119322;28;20126;-78
2021/05/23 12:36:13;;;;;;;0.63;0.50;;;15.60;70.90;;;;;;5119103;28;20590;-79
2021/05/23 12:38:41;;;;;;;0.45;0.40;;;15.70;70.60;;;;;;5119198;28;20038;-78
2021/05/23 12:41:12;;;;;;;0.40;0.40;;;15.70;70.50;;;;;;5138578;28;20031;-78
2021/05/23 12:43:40;;;;;;;0.50;0.30;;;15.70;70.30;;;;;;5138695;28;20092;-77
2021/05/23 12:46:08;;;;;;;0.40;0.40;;;15.70;70.40;;;;;;5138543;28;20035;-79
2021/05/23 12:48:41;;;;;;;0.40;0.40;;;15.70;70.30;;;;;;5085292;28;20043;-78
2021/05/23 12:51:11;;;;;;;0.35;0.35;;;15.70;70.30;;;;;;5102084;28;20039;-79
2021/05/23 12:53:52;;;;;;;1.17;0.55;;;15.60;70.40;;;;;;5120517;28;20054;-79